Time;durP1;ratioP1;P1;durP2;ratioP2;P2;SDS_P1;SDS_P2;PMS_P1;PMS_P2;Temp;Humidity;BMP_temperature;BMP_pressure;BME280_temperature;BME280_humidity;BME280_pressure;Samples;Min_cycle;Max_cycle;Signal;HPM_P1;HPM_P2
2023/07/08 00:00:11;;;;;;;3.70;2.87;;;;;;;;;;5135071;27;20469;-69
2023/07/08 00:02:38;;;;;;;5.83;3.70;;;;;;;;;;5134834;27;20425;-69
2023/07/08 00:05:07;;;;;;;3.90;3.43;;;;;;;;;;5135041;27;20445;-69
2023/07/08 00:07:34;;;;;;;6.80;3.47;;;;;;;;;;5134945;27;20800;-68
2023/07/08 00:10:01;;;;;;;6.80;3.40;;;;;;;;;;5134258;27;20442;-69
2023/07/08 00:12:29;;;;;;;4.93;3.43;;;;;;;;;;5134487;27;20450;-68
2023/07/08 00:14:56;;;;;;;5.30;3.47;;;;;;;;;;5134372;27;20937;-69
2023/07/08 00:17:23;;;;;;;4.20;3.70;;;;;;;;;;5134728;27;20554;-69
2023/07/08 00:19:50;;;;;;;5.10;3.37;;;;;;;;;;5134883;27;20444;-69
2023/07/08 00:22:19;;;;;;;6.63;3.53;;;;;;;;;;5134358;27;20540;-69
2023/07/08 00:24:46;;;;;;;4.13;3.50;;;;;;;;;;5134900;27;20493;-69
2023/07/08 00:27:14;;;;;;;4.70;3.97;;;;;;;;;;5134794;27;20453;-69
2023/07/08 00:29:41;;;;;;;3.93;3.07;;;;;;;;;;5134181;27;20789;-70
2023/07/08 00:32:12;;;;;;;4.77;3.70;;;;;;;;;;5134612;27;20497;-69
2023/07/08 00:34:39;;;;;;;4.57;3.30;;;;;;;;;;5134545;27;20741;-70
2023/07/08 00:37:07;;;;;;;3.97;3.63;;;;;;;;;;5134190;27;20450;-69
2023/07/08 00:39:35;;;;;;;5.90;3.80;;;;;;;;;;5134070;27;20448;-69
2023/07/08 00:42:06;;;;;;;3.63;3.33;;;;;;;;;;5134209;27;20464;-68
2023/07/08 00:44:34;;;;;;;3.53;3.10;;;;;;;;;;5134014;27;20862;-69
2023/07/08 00:47:04;;;;;;;5.80;3.87;;;;;;;;;;5133721;27;20450;-68
2023/07/08 00:49:37;;;;;;;7.50;3.57;;;;;;;;;;5133932;27;20517;-69
2023/07/08 00:52:21;;;;;;;3.93;3.47;;;;;;;;;;5134732;27;20744;-69
2023/07/08 00:54:52;;;;;;;4.30;3.70;;;;;;;;;;5134550;27;20482;-70
2023/07/08 00:57:19;;;;;;;4.10;3.60;;;;;;;;;;5133812;27;20906;-69
2023/07/08 00:59:49;;;;;;;4.20;3.80;;;;;;;;;;5133444;27;20476;-68
2023/07/08 01:02:19;;;;;;;8.20;4.37;;;;;;;;;;5133848;27;20436;-68
2023/07/08 01:04:50;;;;;;;3.30;3.00;;;;;;;;;;5133671;27;20440;-69
2023/07/08 01:07:21;;;;;;;4.37;3.87;;;;;;;;;;5134020;27;20432;-69
2023/07/08 01:09:49;;;;;;;6.10;3.50;;;;;;;;;;5134313;27;20420;-69
2023/07/08 01:12:20;;;;;;;5.00;3.67;;;;;;;;;;5133906;27;20477;-68
2023/07/08 01:14:47;;;;;;;4.80;4.30;;;;;;;;;;5133572;27;20460;-68
2023/07/08 01:17:15;;;;;;;5.30;4.20;;;;;;;;;;5134283;27;20431;-69
2023/07/08 01:19:42;;;;;;;3.70;3.27;;;;;;;;;;5133878;27;20441;-69
2023/07/08 01:22:12;;;;;;;4.33;3.60;;;;;;;;;;5133832;27;20451;-69
2023/07/08 01:24:40;;;;;;;4.37;3.97;;;;;;;;;;5133551;27;20463;-69
2023/07/08 01:27:08;;;;;;;4.90;3.90;;;;;;;;;;5133592;27;20937;-68
2023/07/08 01:29:36;;;;;;;4.80;3.83;;;;;;;;;;5134475;27;20785;-69
2023/07/08 01:32:03;;;;;;;3.80;3.50;;;;;;;;;;5133703;28;20581;-68
2023/07/08 01:34:30;;;;;;;4.57;3.83;;;;;;;;;;5133632;27;20448;-69
2023/07/08 01:36:58;;;;;;;4.40;3.07;;;;;;;;;;5134126;27;20518;-69
2023/07/08 01:39:27;;;;;;;4.17;3.77;;;;;;;;;;5133968;27;20440;-69
2023/07/08 01:41:54;;;;;;;4.80;3.30;;;;;;;;;;5134038;27;20449;-69
2023/07/08 01:44:23;;;;;;;3.83;3.53;;;;;;;;;;5133715;27;20435;-69
2023/07/08 01:46:51;;;;;;;4.50;3.57;;;;;;;;;;5133570;27;20440;-69
2023/07/08 01:49:18;;;;;;;3.83;3.53;;;;;;;;;;5133394;27;20928;-69
2023/07/08 01:51:45;;;;;;;3.73;3.43;;;;;;;;;;5133512;27;20477;-69
2023/07/08 01:54:12;;;;;;;6.93;3.17;;;;;;;;;;5133581;27;20440;-69
2023/07/08 01:56:41;;;;;;;4.60;3.77;;;;;;;;;;5133511;27;20446;-69
2023/07/08 01:59:08;;;;;;;5.50;3.57;;;;;;;;;;5134819;27;20883;-69
2023/07/08 02:01:35;;;;;;;3.50;3.17;;;;;;;;;;5137431;27;20440;-69
2023/07/08 02:04:02;;;;;;;5.30;3.70;;;;;;;;;;5137129;27;20443;-69
2023/07/08 02:06:30;;;;;;;4.03;3.73;;;;;;;;;;5136985;27;20920;-68
2023/07/08 02:08:58;;;;;;;4.10;3.17;;;;;;;;;;5137427;27;20829;-69
2023/07/08 02:11:26;;;;;;;4.40;3.67;;;;;;;;;;5136734;27;21003;-69
2023/07/08 02:13:54;;;;;;;4.63;4.00;;;;;;;;;;5137185;27;20449;-69
2023/07/08 02:16:21;;;;;;;8.00;3.23;;;;;;;;;;5136818;27;20934;-70
2023/07/08 02:18:49;;;;;;;5.43;3.70;;;;;;;;;;5136896;27;20926;-69
2023/07/08 02:21:17;;;;;;;4.57;3.80;;;;;;;;;;5136927;27;20534;-69
2023/07/08 02:23:44;;;;;;;6.43;3.53;;;;;;;;;;5137000;27;20443;-69
2023/07/08 02:26:12;;;;;;;4.00;3.63;;;;;;;;;;5136614;27;20450;-69
2023/07/08 02:28:39;;;;;;;3.40;3.10;;;;;;;;;;5136784;27;20444;-69
2023/07/08 02:31:07;;;;;;;4.87;3.70;;;;;;;;;;5136709;27;20468;-71
2023/07/08 02:33:35;;;;;;;4.60;3.13;;;;;;;;;;5136653;27;20477;-69
2023/07/08 02:36:02;;;;;;;5.13;3.40;;;;;;;;;;5136796;27;20447;-69
2023/07/08 02:38:29;;;;;;;4.30;3.90;;;;;;;;;;5136740;27;20446;-69
2023/07/08 02:40:57;;;;;;;4.20;3.80;;;;;;;;;;5136372;27;20533;-69
2023/07/08 02:43:24;;;;;;;3.73;3.30;;;;;;;;;;5136416;27;20447;-69
2023/07/08 02:45:52;;;;;;;3.90;3.50;;;;;;;;;;5136271;27;20450;-69
2023/07/08 02:48:20;;;;;;;4.57;4.17;;;;;;;;;;5136356;27;20910;-68
2023/07/08 02:50:47;;;;;;;4.63;3.70;;;;;;;;;;5135982;27;20447;-69
2023/07/08 02:53:14;;;;;;;3.70;3.40;;;;;;;;;;5136360;27;20461;-68
2023/07/08 02:55:42;;;;;;;9.53;3.60;;;;;;;;;;5136587;27;20471;-69
2023/07/08 02:58:10;;;;;;;3.37;3.10;;;;;;;;;;5136238;27;20468;-68
2023/07/08 03:00:37;;;;;;;4.13;3.47;;;;;;;;;;5135742;27;20474;-69
2023/07/08 03:03:05;;;;;;;4.53;3.53;;;;;;;;;;5135867;27;20448;-69
2023/07/08 03:05:33;;;;;;;9.20;3.40;;;;;;;;;;5136085;27;20439;-69
2023/07/08 03:08:01;;;;;;;6.20;4.03;;;;;;;;;;5135777;27;20815;-69
2023/07/08 03:10:28;;;;;;;3.90;3.60;;;;;;;;;;5135667;27;20447;-69
2023/07/08 03:12:55;;;;;;;3.50;3.20;;;;;;;;;;5135783;27;20475;-69
2023/07/08 03:15:22;;;;;;;3.77;3.30;;;;;;;;;;5136362;27;20439;-69
2023/07/08 03:17:49;;;;;;;5.20;3.20;;;;;;;;;;5135553;27;20446;-68
2023/07/08 03:20:17;;;;;;;5.30;3.27;;;;;;;;;;5135612;27;20435;-70
2023/07/08 03:22:45;;;;;;;4.00;3.60;;;;;;;;;;5135681;27;20501;-70
2023/07/08 03:25:13;;;;;;;6.93;3.43;;;;;;;;;;5135392;27;20441;-69
2023/07/08 03:27:40;;;;;;;3.90;2.90;;;;;;;;;;5135357;27;20478;-69
2023/07/08 03:30:08;;;;;;;6.93;3.53;;;;;;;;;;5135890;27;20452;-70
2023/07/08 03:32:35;;;;;;;5.83;3.77;;;;;;;;;;5135075;27;20479;-69
2023/07/08 03:35:02;;;;;;;4.90;3.57;;;;;;;;;;5135176;27;20456;-70
2023/07/08 03:37:29;;;;;;;4.10;3.60;;;;;;;;;;5135096;27;20450;-69
2023/07/08 03:39:58;;;;;;;4.43;3.70;;;;;;;;;;5134484;27;20436;-70
2023/07/08 03:42:25;;;;;;;3.70;3.40;;;;;;;;;;5135227;27;20448;-70
2023/07/08 03:44:52;;;;;;;5.80;3.70;;;;;;;;;;5135147;27;20455;-69
2023/07/08 03:47:19;;;;;;;3.43;3.10;;;;;;;;;;5135066;27;20439;-70
2023/07/08 03:49:46;;;;;;;5.53;3.63;;;;;;;;;;5135290;27;20442;-70
2023/07/08 03:52:16;;;;;;;5.00;3.97;;;;;;;;;;5134476;27;20468;-70
2023/07/08 03:54:43;;;;;;;5.67;3.60;;;;;;;;;;5134705;27;20508;-70
2023/07/08 03:57:12;;;;;;;4.30;3.90;;;;;;;;;;5134927;27;20434;-70
2023/07/08 03:59:39;;;;;;;4.00;3.57;;;;;;;;;;5134863;27;20474;-70
2023/07/08 04:02:06;;;;;;;4.30;3.67;;;;;;;;;;5134709;27;20562;-70
2023/07/08 04:04:35;;;;;;;3.50;3.20;;;;;;;;;;5134836;27;20437;-70
2023/07/08 04:07:02;;;;;;;4.60;3.77;;;;;;;;;;5134447;27;20444;-69
2023/07/08 04:09:29;;;;;;;6.20;4.50;;;;;;;;;;5134846;27;20451;-69
2023/07/08 04:11:57;;;;;;;4.23;3.77;;;;;;;;;;5134358;27;20479;-70
2023/07/08 04:14:26;;;;;;;7.30;3.97;;;;;;;;;;5134949;27;20447;-70
2023/07/08 04:16:54;;;;;;;5.67;3.37;;;;;;;;;;5134560;27;20437;-70
2023/07/08 04:19:22;;;;;;;3.47;3.17;;;;;;;;;;5134842;27;20466;-69
2023/07/08 04:21:49;;;;;;;3.77;3.47;;;;;;;;;;5133513;27;20446;-69
2023/07/08 04:24:17;;;;;;;3.50;3.20;;;;;;;;;;5134225;27;20451;-70
2023/07/08 04:26:46;;;;;;;8.27;3.93;;;;;;;;;;5134382;27;20438;-69
2023/07/08 04:29:13;;;;;;;6.57;3.60;;;;;;;;;;5133861;27;20496;-69
2023/07/08 04:31:42;;;;;;;5.17;3.50;;;;;;;;;;5133839;27;20597;-69
2023/07/08 04:34:09;;;;;;;5.00;3.73;;;;;;;;;;5133751;27;20963;-70
2023/07/08 04:36:37;;;;;;;5.50;3.90;;;;;;;;;;5133897;27;20538;-69
2023/07/08 04:39:04;;;;;;;4.60;3.60;;;;;;;;;;5134195;27;20444;-70
2023/07/08 04:41:32;;;;;;;3.57;3.27;;;;;;;;;;5133649;27;20530;-70
2023/07/08 04:44:02;;;;;;;8.57;3.70;;;;;;;;;;5134106;27;20443;-70
2023/07/08 04:46:34;;;;;;;3.40;3.10;;;;;;;;;;5133864;27;20462;-69
2023/07/08 04:49:05;;;;;;;4.43;4.03;;;;;;;;;;5133798;27;20514;-69
2023/07/08 04:51:32;;;;;;;5.17;3.77;;;;;;;;;;5134266;27;20806;-70
2023/07/08 04:53:59;;;;;;;4.67;3.60;;;;;;;;;;5133970;27;20445;-70
2023/07/08 04:56:27;;;;;;;5.33;4.10;;;;;;;;;;5134139;27;20532;-70
2023/07/08 04:58:54;;;;;;;5.30;4.60;;;;;;;;;;5133516;27;20472;-70
2023/07/08 05:01:21;;;;;;;6.77;4.30;;;;;;;;;;5133728;27;20871;-69
2023/07/08 05:03:49;;;;;;;6.90;3.97;;;;;;;;;;5133943;27;20437;-69
2023/07/08 05:06:17;;;;;;;5.70;3.90;;;;;;;;;;5133707;27;20528;-69
2023/07/08 05:08:44;;;;;;;3.90;3.50;;;;;;;;;;5133774;27;20555;-69
2023/07/08 05:11:11;;;;;;;8.80;4.10;;;;;;;;;;5133632;27;20767;-69
2023/07/08 05:13:39;;;;;;;3.50;3.20;;;;;;;;;;5133589;27;20482;-69
2023/07/08 05:16:06;;;;;;;5.47;3.60;;;;;;;;;;5133606;28;20443;-69
2023/07/08 05:18:33;;;;;;;4.60;3.80;;;;;;;;;;5133956;28;20432;-69
2023/07/08 05:21:01;;;;;;;5.23;3.60;;;;;;;;;;5133701;28;20444;-69
2023/07/08 05:23:29;;;;;;;4.00;3.60;;;;;;;;;;5133245;28;20449;-69
2023/07/08 05:26:00;;;;;;;3.50;3.20;;;;;;;;;;5133570;28;20539;-70
2023/07/08 05:28:27;;;;;;;6.50;4.10;;;;;;;;;;5133808;28;20426;-69
2023/07/08 05:30:55;;;;;;;6.10;4.07;;;;;;;;;;5133535;28;20451;-69
2023/07/08 05:33:22;;;;;;;5.10;3.87;;;;;;;;;;5135039;27;20465;-69
2023/07/08 05:35:49;;;;;;;5.30;3.80;;;;;;;;;;5137815;27;20524;-69
2023/07/08 05:38:16;;;;;;;5.83;3.77;;;;;;;;;;5137250;27;20464;-69
2023/07/08 05:40:50;;;;;;;5.20;3.83;;;;;;;;;;5137257;27;20453;-70
2023/07/08 05:43:17;;;;;;;3.70;3.37;;;;;;;;;;5137326;27;20441;-69
2023/07/08 05:45:44;;;;;;;3.97;3.60;;;;;;;;;;5137268;27;20456;-69
2023/07/08 05:48:12;;;;;;;9.33;4.17;;;;;;;;;;5137449;27;20447;-69
2023/07/08 05:50:39;;;;;;;6.47;3.90;;;;;;;;;;5137145;27;20442;-69
2023/07/08 05:53:06;;;;;;;4.83;3.67;;;;;;;;;;5137545;27;20469;-69
2023/07/08 05:55:34;;;;;;;5.87;3.50;;;;;;;;;;5137649;27;20441;-69
2023/07/08 05:58:02;;;;;;;3.70;3.37;;;;;;;;;;5136938;27;20448;-69
2023/07/08 06:00:29;;;;;;;5.27;3.70;;;;;;;;;;5137423;27;20808;-69
2023/07/08 06:02:57;;;;;;;5.57;3.50;;;;;;;;;;5136968;27;20985;-69
2023/07/08 06:05:24;;;;;;;6.00;4.47;;;;;;;;;;5137121;27;20441;-69
2023/07/08 06:07:51;;;;;;;5.60;3.87;;;;;;;;;;5137060;27;20440;-69
2023/07/08 06:10:18;;;;;;;4.13;3.70;;;;;;;;;;5137045;27;20434;-69
2023/07/08 06:12:45;;;;;;;4.17;3.50;;;;;;;;;;5136661;27;21092;-69
2023/07/08 06:15:14;;;;;;;5.80;3.60;;;;;;;;;;5137078;27;20802;-70
2023/07/08 06:17:41;;;;;;;4.63;3.60;;;;;;;;;;5136992;27;20445;-69
2023/07/08 06:20:09;;;;;;;4.43;4.03;;;;;;;;;;5136766;27;20438;-69
2023/07/08 06:22:36;;;;;;;5.73;3.50;;;;;;;;;;5136725;27;20533;-69
2023/07/08 06:25:04;;;;;;;3.93;3.53;;;;;;;;;;5136862;27;20449;-69
2023/07/08 06:27:31;;;;;;;4.07;3.77;;;;;;;;;;5136698;27;20438;-69
2023/07/08 06:29:58;;;;;;;4.63;3.50;;;;;;;;;;5136347;27;20442;-69
2023/07/08 06:32:27;;;;;;;6.63;3.87;;;;;;;;;;5136733;27;20479;-69
2023/07/08 06:34:54;;;;;;;4.03;3.73;;;;;;;;;;5136282;27;20452;-69
2023/07/08 06:37:21;;;;;;;8.97;5.10;;;;;;;;;;5136298;27;20453;-69
2023/07/08 06:39:48;;;;;;;4.70;3.57;;;;;;;;;;5136366;27;20448;-69
2023/07/08 06:42:15;;;;;;;6.17;3.70;;;;;;;;;;5136157;27;20876;-69
2023/07/08 06:44:50;;;;;;;5.43;3.77;;;;;;;;;;5135824;27;20793;-69
2023/07/08 06:47:17;;;;;;;5.97;3.77;;;;;;;;;;5136351;27;20922;-69
2023/07/08 06:49:45;;;;;;;5.03;3.93;;;;;;;;;;5136017;27;20477;-70
2023/07/08 06:52:12;;;;;;;4.87;3.67;;;;;;;;;;5136579;27;20788;-69
2023/07/08 06:54:40;;;;;;;6.60;4.00;;;;;;;;;;5136197;27;20434;-69
2023/07/08 06:57:07;;;;;;;4.30;3.90;;;;;;;;;;5136151;27;20446;-70
2023/07/08 06:59:34;;;;;;;5.43;4.13;;;;;;;;;;5135532;27;20486;-70
2023/07/08 07:02:02;;;;;;;4.50;3.97;;;;;;;;;;5136056;27;20439;-69
2023/07/08 07:04:30;;;;;;;6.60;4.47;;;;;;;;;;5136164;27;20444;-69
2023/07/08 07:06:59;;;;;;;4.47;3.90;;;;;;;;;;5135797;27;20450;-69
2023/07/08 07:09:26;;;;;;;6.03;4.70;;;;;;;;;;5136078;27;20447;-69
2023/07/08 07:11:54;;;;;;;5.20;4.30;;;;;;;;;;5135708;27;20440;-69
2023/07/08 07:14:21;;;;;;;6.57;5.87;;;;;;;;;;5135903;27;20570;-69
2023/07/08 07:16:48;;;;;;;5.33;4.30;;;;;;;;;;5135329;27;20443;-63
2023/07/08 07:19:15;;;;;;;7.70;5.40;;;;;;;;;;5135353;27;20934;-67
2023/07/08 07:21:42;;;;;;;7.33;4.00;;;;;;;;;;5135839;27;20475;-67
2023/07/08 07:24:11;;;;;;;8.10;5.40;;;;;;;;;;5135034;27;20443;-68
2023/07/08 07:26:39;;;;;;;4.40;3.80;;;;;;;;;;5135493;27;20444;-67
2023/07/08 07:29:06;;;;;;;5.83;3.80;;;;;;;;;;5135476;27;20448;-68
2023/07/08 07:31:33;;;;;;;5.57;5.10;;;;;;;;;;5135085;27;20962;-68
2023/07/08 07:34:01;;;;;;;8.70;6.17;;;;;;;;;;5135333;27;20832;-68
2023/07/08 07:36:28;;;;;;;5.43;4.83;;;;;;;;;;5134859;27;20463;-68
2023/07/08 07:38:56;;;;;;;9.40;8.40;;;;;;;;;;5135756;27;20452;-67
2023/07/08 07:41:24;;;;;;;11.87;10.43;;;;;;;;;;5134860;27;20447;-67
2023/07/08 07:43:51;;;;;;;6.63;4.77;;;;;;;;;;5135192;27;20487;-68
2023/07/08 07:46:19;;;;;;;5.17;4.33;;;;;;;;;;5135105;27;20792;-68
2023/07/08 07:48:46;;;;;;;5.17;4.67;;;;;;;;;;5135144;27;20450;-67
2023/07/08 07:51:13;;;;;;;5.37;4.83;;;;;;;;;;5134903;27;20445;-67
2023/07/08 07:53:40;;;;;;;4.33;3.93;;;;;;;;;;5134911;27;20580;-67
2023/07/08 07:56:08;;;;;;;4.10;3.70;;;;;;;;;;5134810;27;20452;-67
2023/07/08 07:58:36;;;;;;;5.93;4.33;;;;;;;;;;5134470;27;20455;-67
2023/07/08 08:01:04;;;;;;;6.33;4.33;;;;;;;;;;5134836;27;20438;-68
2023/07/08 08:03:31;;;;;;;5.97;4.30;;;;;;;;;;5134813;27;20448;-68
2023/07/08 08:05:59;;;;;;;10.60;5.83;;;;;;;;;;5134387;27;20440;-68
2023/07/08 08:08:26;;;;;;;12.43;6.33;;;;;;;;;;5134402;27;20978;-68
2023/07/08 08:10:53;;;;;;;5.97;4.60;;;;;;;;;;5134236;27;20908;-68
2023/07/08 08:13:20;;;;;;;5.83;4.70;;;;;;;;;;5134178;27;20480;-68
2023/07/08 08:15:49;;;;;;;5.77;4.40;;;;;;;;;;5134548;27;20796;-68
2023/07/08 08:18:16;;;;;;;4.30;3.90;;;;;;;;;;5134917;27;20453;-68
2023/07/08 08:20:43;;;;;;;5.43;4.30;;;;;;;;;;5134604;27;20978;-68
2023/07/08 08:23:10;;;;;;;9.20;5.73;;;;;;;;;;5134930;27;20791;-68
2023/07/08 08:25:37;;;;;;;12.43;4.77;;;;;;;;;;5134730;27;20528;-68
2023/07/08 08:28:05;;;;;;;8.33;5.67;;;;;;;;;;5134698;27;20443;-68
2023/07/08 08:30:33;;;;;;;6.23;4.67;;;;;;;;;;5134361;27;20536;-68
2023/07/08 08:33:01;;;;;;;6.30;4.80;;;;;;;;;;5134384;27;20564;-68
2023/07/08 08:35:29;;;;;;;5.50;4.13;;;;;;;;;;5135360;27;20447;-68
2023/07/08 08:37:57;;;;;;;5.17;4.73;;;;;;;;;;5134249;27;20943;-68
2023/07/08 08:40:24;;;;;;;6.33;3.70;;;;;;;;;;5134235;27;20408;-68
2023/07/08 08:42:58;;;;;;;4.97;3.87;;;;;;;;;;5134185;27;20416;-68
2023/07/08 08:45:26;;;;;;;8.90;4.63;;;;;;;;;;5134625;27;20438;-68
2023/07/08 08:47:55;;;;;;;7.43;4.40;;;;;;;;;;5134487;27;20425;-68
2023/07/08 08:50:28;;;;;;;9.33;5.30;;;;;;;;;;5134475;27;20427;-68
2023/07/08 08:52:56;;;;;;;5.90;4.97;;;;;;;;;;5134055;27;20514;-68
2023/07/08 08:55:24;;;;;;;5.30;4.73;;;;;;;;;;5134498;27;20504;-68
2023/07/08 08:57:55;;;;;;;8.83;4.80;;;;;;;;;;5133987;27;20927;-69
2023/07/08 09:00:26;;;;;;;5.90;5.33;;;;;;;;;;5134727;27;20459;-68
2023/07/08 09:02:59;;;;;;;6.83;4.90;;;;;;;;;;5134365;27;20992;-70
2023/07/08 09:05:27;;;;;;;5.30;4.90;;;;;;;;;;5134275;27;20434;-68
2023/07/08 09:08:02;;;;;;;9.00;4.53;;;;;;;;;;5133731;27;20492;-68
2023/07/08 09:10:35;;;;;;;5.23;4.83;;;;;;;;;;5113407;28;20433;-68
2023/07/08 09:13:04;;;;;;;9.67;7.10;;;;;;;;;;5113121;28;20435;-67
2023/07/08 09:15:31;;;;;;;7.90;7.10;;;;;;;;;;5131403;28;20456;-67
2023/07/08 09:18:01;;;;;;;6.53;5.93;;;;;;;;;;5133460;28;20405;-69
2023/07/08 09:20:30;;;;;;;7.57;6.80;;;;;;;;;;5133105;28;20984;-67
2023/07/08 09:23:00;;;;;;;9.93;4.83;;;;;;;;;;5133380;28;20418;-67
2023/07/08 09:25:30;;;;;;;5.07;4.60;;;;;;;;;;5133554;28;20496;-68
2023/07/08 09:27:57;;;;;;;5.60;5.10;;;;;;;;;;5133558;28;20414;-68
2023/07/08 09:30:26;;;;;;;5.17;4.63;;;;;;;;;;5133842;28;20453;-68
2023/07/08 09:32:53;;;;;;;6.63;5.20;;;;;;;;;;5133243;28;20439;-67
2023/07/08 09:35:23;;;;;;;5.67;5.17;;;;;;;;;;5133368;28;20483;-68
2023/07/08 09:37:51;;;;;;;9.50;4.80;;;;;;;;;;5133008;28;20439;-68
2023/07/08 09:40:21;;;;;;;5.53;4.90;;;;;;;;;;5133562;28;20446;-68
2023/07/08 09:42:52;;;;;;;12.57;4.70;;;;;;;;;;5133127;28;20425;-68
2023/07/08 09:45:21;;;;;;;6.73;5.63;;;;;;;;;;5133495;28;20522;-67
2023/07/08 09:47:49;;;;;;;8.43;5.17;;;;;;;;;;5132846;28;20443;-68
2023/07/08 09:50:20;;;;;;;5.93;5.37;;;;;;;;;;5133056;28;20412;-68
2023/07/08 09:52:48;;;;;;;10.83;5.27;;;;;;;;;;5133444;28;20694;-68
2023/07/08 09:55:17;;;;;;;5.63;5.13;;;;;;;;;;5133208;28;20471;-68
2023/07/08 09:57:45;;;;;;;8.63;5.40;;;;;;;;;;5133190;28;20509;-68
2023/07/08 10:00:13;;;;;;;6.07;5.50;;;;;;;;;;5133203;28;20481;-68
2023/07/08 10:02:42;;;;;;;6.37;5.23;;;;;;;;;;5133304;28;20420;-68
2023/07/08 10:05:14;;;;;;;9.30;5.27;;;;;;;;;;5133471;28;20473;-67
2023/07/08 10:07:41;;;;;;;12.17;6.10;;;;;;;;;;5133184;28;20443;-68
2023/07/08 10:10:10;;;;;;;7.80;5.07;;;;;;;;;;5133570;28;20446;-67
2023/07/08 10:12:39;;;;;;;7.03;6.20;;;;;;;;;;5133451;28;20415;-67
2023/07/08 10:15:13;;;;;;;6.90;5.60;;;;;;;;;;5133273;28;20452;-67
2023/07/08 10:17:42;;;;;;;10.40;5.57;;;;;;;;;;5132709;28;20431;-68
2023/07/08 10:20:12;;;;;;;6.00;5.40;;;;;;;;;;5134509;27;20416;-68
2023/07/08 10:22:42;;;;;;;5.97;5.27;;;;;;;;;;5137283;27;20509;-68
2023/07/08 10:25:15;;;;;;;7.60;5.40;;;;;;;;;;5137140;27;20434;-68
2023/07/08 10:27:58;;;;;;;13.93;5.63;;;;;;;;;;5136727;27;20429;-68
2023/07/08 10:30:26;;;;;;;9.13;5.93;;;;;;;;;;5136402;27;20431;-68
2023/07/08 10:33:08;;;;;;;7.33;5.50;;;;;;;;;;5136568;27;20439;-68
2023/07/08 10:35:36;;;;;;;9.63;8.33;;;;;;;;;;5136732;27;20475;-68
2023/07/08 10:38:12;;;;;;;10.30;8.70;;;;;;;;;;5136196;27;20447;-67
2023/07/08 10:40:46;;;;;;;8.10;6.00;;;;;;;;;;5136754;27;20410;-68
2023/07/08 10:43:20;;;;;;;7.10;5.67;;;;;;;;;;5136549;27;20433;-67
2023/07/08 10:45:51;;;;;;;9.27;6.60;;;;;;;;;;5136675;27;20432;-68
2023/07/08 10:48:25;;;;;;;7.90;5.93;;;;;;;;;;5136626;27;20407;-67
2023/07/08 10:50:59;;;;;;;9.83;5.70;;;;;;;;;;5136469;27;20410;-68
2023/07/08 10:53:38;;;;;;;6.20;5.70;;;;;;;;;;5136020;27;20441;-67
2023/07/08 10:56:08;;;;;;;7.30;5.97;;;;;;;;;;5136047;27;20423;-68
2023/07/08 10:58:50;;;;;;;6.83;6.20;;;;;;;;;;5136273;27;20898;-67
2023/07/08 11:01:25;;;;;;;6.63;5.67;;;;;;;;;;5132999;27;20416;-67
2023/07/08 11:04:07;;;;;;;6.83;6.13;;;;;;;;;;5135935;27;20416;-67
2023/07/08 11:06:39;;;;;;;8.77;6.40;;;;;;;;;;5135987;27;20438;-67
2023/07/08 11:09:07;;;;;;;7.70;6.67;;;;;;;;;;5135874;27;20406;-67
2023/07/08 11:11:36;;;;;;;13.43;6.70;;;;;;;;;;5135799;27;20417;-67
2023/07/08 11:14:06;;;;;;;6.87;6.17;;;;;;;;;;5135749;27;20477;-67
2023/07/08 11:16:36;;;;;;;10.30;6.93;;;;;;;;;;5135678;27;20441;-67
2023/07/08 11:19:06;;;;;;;7.70;6.20;;;;;;;;;;5135807;27;20426;-67
2023/07/08 11:21:37;;;;;;;8.47;7.13;;;;;;;;;;5135457;27;20440;-67
2023/07/08 11:24:08;;;;;;;7.20;5.97;;;;;;;;;;5135449;27;20906;-67
2023/07/08 11:26:39;;;;;;;7.27;5.80;;;;;;;;;;5135788;27;20411;-67
2023/07/08 11:29:12;;;;;;;10.83;6.77;;;;;;;;;;5135916;27;20502;-67
2023/07/08 11:31:41;;;;;;;7.73;6.07;;;;;;;;;;5135391;27;20519;-67
2023/07/08 11:34:09;;;;;;;7.93;7.10;;;;;;;;;;5135754;27;20480;-68
2023/07/08 11:36:37;;;;;;;7.27;6.57;;;;;;;;;;5135970;27;20408;-67
2023/07/08 11:39:04;;;;;;;7.83;6.60;;;;;;;;;;5135218;27;20523;-68
2023/07/08 11:41:33;;;;;;;11.43;6.60;;;;;;;;;;5135403;27;20439;-67
2023/07/08 11:44:04;;;;;;;7.60;6.90;;;;;;;;;;5135217;27;21011;-68
2023/07/08 11:46:32;;;;;;;7.60;6.67;;;;;;;;;;5135874;27;20431;-68
2023/07/08 11:49:02;;;;;;;9.83;6.93;;;;;;;;;;5135390;27;20514;-68
2023/07/08 11:51:33;;;;;;;7.07;6.37;;;;;;;;;;5135673;27;20437;-67
2023/07/08 11:54:01;;;;;;;9.60;6.57;;;;;;;;;;5134882;27;20448;-68
2023/07/08 11:56:28;;;;;;;8.50;6.70;;;;;;;;;;5135331;27;20448;-68
2023/07/08 11:59:14;;;;;;;8.77;7.57;;;;;;;;;;5134992;27;20821;-67
2023/07/08 12:01:42;;;;;;;7.90;7.17;;;;;;;;;;5135014;27;20934;-67
2023/07/08 12:04:32;;;;;;;7.87;6.80;;;;;;;;;;5134903;27;20929;-67
2023/07/08 12:07:13;;;;;;;8.30;7.00;;;;;;;;;;5135192;27;20429;-67
2023/07/08 12:09:46;;;;;;;9.03;7.00;;;;;;;;;;5134528;27;20460;-67
2023/07/08 12:12:17;;;;;;;10.47;7.00;;;;;;;;;;5134609;27;20429;-67
2023/07/08 12:14:46;;;;;;;30.67;27.77;;;;;;;;;;5134724;27;20461;-66
2023/07/08 12:17:14;;;;;;;8.83;7.97;;;;;;;;;;5134478;27;20444;-67
2023/07/08 12:19:43;;;;;;;9.63;7.23;;;;;;;;;;5134589;27;20445;-67
2023/07/08 12:22:12;;;;;;;10.03;7.20;;;;;;;;;;5135041;27;20798;-67
2023/07/08 12:24:39;;;;;;;16.13;13.30;;;;;;;;;;5134923;27;20448;-68
2023/07/08 12:27:06;;;;;;;8.33;7.63;;;;;;;;;;5134608;27;20449;-68
2023/07/08 12:29:34;;;;;;;7.97;6.97;;;;;;;;;;5134648;27;20451;-67
2023/07/08 12:32:01;;;;;;;8.77;7.50;;;;;;;;;;5134885;27;20489;-68
2023/07/08 12:34:29;;;;;;;8.37;6.80;;;;;;;;;;5134472;27;20820;-68
2023/07/08 12:36:59;;;;;;;7.80;7.00;;;;;;;;;;5134087;27;20550;-68
2023/07/08 12:39:26;;;;;;;7.07;6.47;;;;;;;;;;5134086;27;20508;-69
2023/07/08 12:41:53;;;;;;;7.77;6.90;;;;;;;;;;5134397;27;20433;-68
2023/07/08 12:44:21;;;;;;;10.27;6.47;;;;;;;;;;5134146;27;20871;-69
2023/07/08 12:46:49;;;;;;;8.87;7.10;;;;;;;;;;5133837;27;20450;-68
2023/07/08 12:49:18;;;;;;;10.40;7.10;;;;;;;;;;5133784;27;20526;-68
2023/07/08 12:51:45;;;;;;;8.60;6.67;;;;;;;;;;5133640;27;20813;-68
2023/07/08 12:54:14;;;;;;;7.37;6.70;;;;;;;;;;5133379;27;20535;-68
2023/07/08 12:56:44;;;;;;;11.23;8.40;;;;;;;;;;5133585;27;20437;-67
2023/07/08 12:59:13;;;;;;;7.40;6.70;;;;;;;;;;5133148;27;20973;-68
2023/07/08 13:01:41;;;;;;;9.00;6.97;;;;;;;;;;5133236;27;20444;-68
2023/07/08 13:04:11;;;;;;;7.93;7.17;;;;;;;;;;5133263;27;20892;-67
2023/07/08 13:06:40;;;;;;;11.73;7.50;;;;;;;;;;5133442;27;20433;-67
2023/07/08 13:09:09;;;;;;;9.07;7.73;;;;;;;;;;5132725;27;20481;-68
2023/07/08 13:11:38;;;;;;;8.80;7.43;;;;;;;;;;5132099;27;20443;-67
2023/07/08 13:14:07;;;;;;;8.20;7.10;;;;;;;;;;5133367;27;20434;-67
2023/07/08 13:16:35;;;;;;;8.67;7.27;;;;;;;;;;5133482;27;20787;-67
2023/07/08 13:19:02;;;;;;;12.57;6.83;;;;;;;;;;5133831;28;20441;-67
2023/07/08 13:21:31;;;;;;;7.77;6.97;;;;;;;;;;5133285;28;20442;-67
2023/07/08 13:23:59;;;;;;;8.33;7.53;;;;;;;;;;5133276;28;20444;-67
2023/07/08 13:26:27;;;;;;;10.90;7.30;;;;;;;;;;5133639;28;20454;-68
2023/07/08 13:29:02;;;;;;;7.90;6.80;;;;;;;;;;5133615;28;20456;-68
2023/07/08 13:31:34;;;;;;;8.90;6.83;;;;;;;;;;5133360;28;20902;-68
2023/07/08 13:34:07;;;;;;;8.87;7.17;;;;;;;;;;5133355;28;20423;-67
2023/07/08 13:36:35;;;;;;;11.30;8.57;;;;;;;;;;5133633;28;20471;-67
2023/07/08 13:39:04;;;;;;;7.67;6.97;;;;;;;;;;5133543;28;20463;-67
2023/07/08 13:41:31;;;;;;;9.13;7.63;;;;;;;;;;5133336;28;20472;-67
2023/07/08 13:43:58;;;;;;;9.70;7.43;;;;;;;;;;5133384;28;20438;-67
2023/07/08 13:46:37;;;;;;;9.17;8.00;;;;;;;;;;5133560;27;20814;-68
2023/07/08 13:49:11;;;;;;;8.50;6.77;;;;;;;;;;5133939;28;20519;-67
2023/07/08 13:51:38;;;;;;;11.00;6.97;;;;;;;;;;5133194;28;20508;-68
2023/07/08 13:54:10;;;;;;;8.67;7.77;;;;;;;;;;5134574;27;20436;-68
2023/07/08 13:56:38;;;;;;;11.50;10.30;;;;;;;;;;5137718;27;20465;-68
2023/07/08 13:59:06;;;;;;;11.33;10.13;;;;;;;;;;5137068;27;20473;-67
2023/07/08 14:01:34;;;;;;;12.30;7.77;;;;;;;;;;5137341;27;20445;-67
2023/07/08 14:04:03;;;;;;;12.43;10.67;;;;;;;;;;5137344;27;20467;-67
2023/07/08 14:06:31;;;;;;;9.47;7.50;;;;;;;;;;5137281;27;20448;-67
2023/07/08 14:09:00;;;;;;;11.07;10.07;;;;;;;;;;5138072;27;20444;-67
2023/07/08 14:11:27;;;;;;;7.70;6.90;;;;;;;;;;5137517;27;20448;-68
2023/07/08 14:13:54;;;;;;;11.57;10.47;;;;;;;;;;5137798;27;20937;-67
2023/07/08 14:16:25;;;;;;;9.80;7.60;;;;;;;;;;5136787;27;20537;-68
2023/07/08 14:18:52;;;;;;;8.80;8.00;;;;;;;;;;5137393;27;20914;-68
2023/07/08 14:21:21;;;;;;;7.70;7.00;;;;;;;;;;5137036;27;20440;-68
2023/07/08 14:23:48;;;;;;;7.70;6.90;;;;;;;;;;5136953;27;20438;-68
2023/07/08 14:26:15;;;;;;;8.07;7.27;;;;;;;;;;5137326;27;20449;-68
2023/07/08 14:28:42;;;;;;;8.57;7.80;;;;;;;;;;5136993;27;20446;-67
2023/07/08 14:31:11;;;;;;;15.60;13.97;;;;;;;;;;5136802;27;20464;-67
2023/07/08 14:33:38;;;;;;;9.03;8.20;;;;;;;;;;5136335;27;20545;-68
2023/07/08 14:36:08;;;;;;;8.93;7.77;;;;;;;;;;5136581;27;20477;-68
2023/07/08 14:38:37;;;;;;;8.70;7.90;;;;;;;;;;5137392;27;20434;-68
2023/07/08 14:41:05;;;;;;;8.77;7.97;;;;;;;;;;5136359;27;20446;-68
2023/07/08 14:43:33;;;;;;;8.50;7.70;;;;;;;;;;5136935;27;20433;-68
2023/07/08 14:46:02;;;;;;;18.67;16.93;;;;;;;;;;5136528;27;20474;-69
2023/07/08 14:48:30;;;;;;;16.53;14.97;;;;;;;;;;5136309;27;20449;-68